Time;durP1;ratioP1;P1;durP2;ratioP2;P2;SDS_P1;SDS_P2;PMS_P1;PMS_P2;Temp;Humidity;BMP_temperature;BMP_pressure;BME280_temperature;BME280_humidity;BME280_pressure;Samples;Min_cycle;Max_cycle;Signal;HPM_P1;HPM_P2
2023/04/29 00:00:14;;;;;;;;;2.00;2.00;;;;;18.00;59.28;101124.84;2087350;28;45472;-69
2023/04/29 00:01:15;;;;;;;;;7.67;6.67;;;;;18.00;59.21;101130.22;2087084;28;46232;-69
2023/04/29 00:02:15;;;;;;;;;6.00;6.00;;;;;18.02;59.22;101131.88;2088626;28;47276;-67
2023/04/29 00:03:16;;;;;;;;;3.00;3.00;;;;;18.02;59.15;101125.63;2079963;28;46362;-68
2023/04/29 00:04:16;;;;;;;;;3.33;3.33;;;;;18.01;59.01;101119.41;2079368;28;46879;-69
2023/04/29 00:05:17;;;;;;;;;3.00;3.00;;;;;18.00;59.02;101120.34;2080111;28;45537;-68
2023/04/29 00:06:17;;;;;;;;;2.00;2.00;;;;;17.99;59.00;101115.03;2079687;28;46543;-68
2023/04/29 00:07:18;;;;;;;;;4.00;4.00;;;;;17.98;59.16;101116.00;2088099;28;46022;-67
2023/04/29 00:08:18;;;;;;;;;3.67;3.67;;;;;17.98;59.26;101118.69;2079855;28;46558;-68
2023/04/29 00:09:18;;;;;;;;;6.00;4.33;;;;;17.99;59.01;101117.72;2079731;28;46707;-67
2023/04/29 00:10:19;;;;;;;;;3.33;3.33;;;;;18.00;59.06;101114.97;2088473;28;46013;-69
2023/04/29 00:11:19;;;;;;;;;4.00;4.00;;;;;17.99;59.10;101115.91;2088297;28;46587;-69
2023/04/29 00:12:19;;;;;;;;;3.67;3.67;;;;;17.98;59.30;101113.31;2088206;28;45667;-67
2023/04/29 00:13:20;;;;;;;;;3.33;3.33;;;;;17.98;59.19;101114.19;2096262;28;45545;-68
2023/04/29 00:14:20;;;;;;;;;3.00;3.00;;;;;17.97;59.32;101112.44;2096856;28;45886;-68
2023/04/29 00:15:21;;;;;;;;;5.00;4.00;;;;;17.97;59.26;101111.56;2096835;28;45838;-67
2023/04/29 00:16:21;;;;;;;;;4.33;4.33;;;;;17.96;59.06;101117.88;2087949;28;45773;-68
2023/04/29 00:17:22;;;;;;;;;4.33;4.33;;;;;17.94;59.07;101117.94;2086967;28;46249;-68
2023/04/29 00:18:22;;;;;;;;;5.33;5.00;;;;;17.92;59.14;101117.16;2088244;28;45720;-67
2023/04/29 00:19:23;;;;;;;;;5.00;5.00;;;;;17.89;59.03;101115.47;2079234;28;46476;-68
2023/04/29 00:20:23;;;;;;;;;3.00;3.00;;;;;17.88;59.13;101119.09;2071473;28;46415;-68
2023/04/29 00:21:26;;;;;;;;;4.33;4.33;;;;;17.89;59.27;101114.59;2079800;28;46041;-70
2023/04/29 00:22:26;;;;;;;;;3.25;3.25;;;;;17.86;58.91;101104.00;2085903;28;45066;-67
2023/04/29 00:23:27;;;;;;;;;3.00;3.00;;;;;17.84;59.12;101112.13;2088636;28;45813;-69
2023/04/29 00:24:29;;;;;;;;;5.00;3.00;;;;;17.82;59.32;101103.28;2088311;28;45527;-68
2023/04/29 00:25:29;;;;;;;;;4.75;4.25;;;;;17.81;59.34;101106.91;2094490;28;45909;-67
2023/04/29 00:26:30;;;;;;;;;4.33;4.00;;;;;17.80;59.36;101105.16;2096143;28;45730;-67
2023/04/29 00:27:32;;;;;;;;;3.00;3.00;;;;;17.80;59.38;101098.91;2096639;28;46297;-69
2023/04/29 00:28:32;;;;;;;;;3.00;3.00;;;;;17.80;59.33;101109.66;2096371;28;46448;-69
2023/04/29 00:29:32;;;;;;;;;3.00;3.00;;;;;17.81;59.26;101111.41;2096483;28;46287;-69
2023/04/29 00:30:33;;;;;;;;;4.00;4.00;;;;;17.81;59.38;101106.91;2095961;28;46407;-68
2023/04/29 00:31:34;;;;;;;;;4.00;3.33;;;;;17.82;59.35;101110.47;2087922;28;45588;-69
2023/04/29 00:32:35;;;;;;;;;2.33;2.00;;;;;17.80;59.09;101105.16;2087423;28;45911;-68
2023/04/29 00:33:35;;;;;;;;;6.50;5.25;;;;;17.80;59.20;101106.97;2087888;28;47121;-68
2023/04/29 00:34:36;;;;;;;;;5.33;5.33;;;;;17.79;59.19;101098.06;2089898;28;46832;-68
2023/04/29 00:35:36;;;;;;;;;6.00;6.00;;;;;17.78;59.35;101093.59;2089724;28;45948;-69
2023/04/29 00:36:36;;;;;;;;;4.00;4.00;;;;;17.77;59.19;101093.66;2094429;28;45718;-69
2023/04/29 00:37:37;;;;;;;;;8.00;6.00;;;;;17.77;59.35;101096.34;2087594;28;45573;-68
2023/04/29 00:38:38;;;;;;;;;4.00;4.00;;;;;17.75;59.13;101099.09;2080403;28;45709;-67
2023/04/29 00:39:38;;;;;;;;;4.00;4.00;;;;;17.74;59.31;101100.06;2080541;28;46648;-68
2023/04/29 00:40:38;;;;;;;;;3.33;3.33;;;;;17.74;59.37;101101.88;2088133;28;46362;-68
2023/04/29 00:41:39;;;;;;;;;3.00;3.00;;;;;17.72;59.20;101095.69;2084066;28;45787;-69
2023/04/29 00:42:40;;;;;;;;;4.00;4.00;;;;;17.71;59.24;101104.69;2079899;28;45705;-70
2023/04/29 00:43:40;;;;;;;;;3.67;3.67;;;;;17.70;59.60;101100.28;2079649;28;45408;-68
2023/04/29 00:44:41;;;;;;;;;6.00;4.00;;;;;17.68;59.46;101096.75;2079727;28;46157;-68
2023/04/29 00:45:41;;;;;;;;;6.00;5.00;;;;;17.67;59.46;101093.19;2080128;28;45811;-68
2023/04/29 00:46:42;;;;;;;;;5.00;5.00;;;;;17.68;59.21;101099.44;2074026;28;47583;-70
2023/04/29 00:47:42;;;;;;;;;4.00;4.00;;;;;17.64;59.41;101099.56;2072028;28;46233;-69
2023/04/29 00:48:43;;;;;;;;;5.00;5.00;;;;;17.63;59.36;101091.56;2088156;28;46973;-69
2023/04/29 00:49:44;;;;;;;;;4.33;3.33;;;;;17.62;59.43;101101.44;2088230;28;45627;-67
2023/04/29 00:50:44;;;;;;;;;4.00;4.00;;;;;17.60;59.73;101091.72;2087786;28;46690;-68
2023/04/29 00:51:44;;;;;;;;;6.33;6.33;;;;;17.59;59.81;101096.22;2079609;28;45499;-68
2023/04/29 00:52:46;;;;;;;;;4.00;4.00;;;;;17.60;59.50;101095.28;2079751;28;45746;-70
2023/04/29 00:53:47;;;;;;;;;2.50;2.50;;;;;17.59;59.46;101092.66;2087463;28;46548;-68
2023/04/29 00:54:47;;;;;;;;;3.00;3.00;;;;;17.58;59.85;101091.78;2087568;28;46408;-68
2023/04/29 00:55:50;;;;;;;;;4.00;4.00;;;;;17.57;59.70;101087.38;2088175;28;45892;-69
2023/04/29 00:56:51;;;;;;;;;4.00;4.00;;;;;17.57;59.53;101089.19;2071745;28;45818;-68
2023/04/29 00:57:52;;;;;;;;;3.00;3.00;;;;;17.56;59.58;101084.75;2074872;28;46386;-69
2023/04/29 00:58:52;;;;;;;;;5.00;3.67;;;;;17.55;59.66;101086.56;2079045;28;46480;-68
2023/04/29 00:59:53;;;;;;;;;6.00;6.00;;;;;17.55;59.54;101097.31;2056055;28;46633;-68
2023/04/29 01:00:55;;;;;;;;;5.00;5.00;;;;;17.54;59.73;101090.19;2048865;28;45644;-68
2023/04/29 01:01:55;;;;;;;;;5.00;5.00;;;;;17.52;59.77;101092.06;2071399;28;46355;-68
2023/04/29 01:02:56;;;;;;;;;6.67;5.00;;;;;17.51;59.75;101095.69;2083505;28;45965;-67
2023/04/29 01:03:57;;;;;;;;;3.25;3.25;;;;;17.50;59.66;101093.06;2087518;28;47618;-68
2023/04/29 01:04:57;;;;;;;;;3.25;3.25;;;;;17.49;59.99;101089.50;2080344;28;44986;-69
2023/04/29 01:06:23;;;;;;;;;3.00;3.00;;;;;17.49;59.85;101091.31;2079480;28;45473;-68
2023/04/29 01:07:41;;;;;;;;;5.25;5.25;;;;;17.47;59.80;101093.22;2088048;28;46331;-69
2023/04/29 01:09:03;;;;;;;;;6.75;6.00;;;;;17.48;59.82;101094.94;2088126;28;46124;-67
2023/04/29 01:10:13;;;;;;;;;5.50;5.50;;;;;17.48;59.89;101090.44;2097144;28;45958;-67
2023/04/29 01:11:18;;;;;;;;;5.00;5.00;;;;;17.46;60.15;101091.47;2097396;28;45536;-67
2023/04/29 01:12:30;;;;;;;;;5.00;5.00;;;;;17.44;59.90;101085.31;2096664;28;46521;-68
2023/04/29 01:13:57;;;;;;;;;4.75;4.75;;;;;17.41;60.12;101085.44;2095423;28;45679;-69
2023/04/29 01:15:11;;;;;;;;;3.75;3.75;;;;;17.41;59.76;101086.31;2082974;28;46801;-67
2023/04/29 01:16:24;;;;;;;;;4.25;4.25;;;;;17.39;60.15;101093.53;2094510;28;46017;-68
2023/04/29 01:17:25;;;;;;;;;3.75;3.75;;;;;17.39;60.10;101096.22;2094929;28;46668;-68
2023/04/29 01:18:33;;;;;;;;;4.50;4.50;;;;;17.38;60.33;101097.16;2088455;28;46443;-68
2023/04/29 01:19:43;;;;;;;;;5.00;5.00;;;;;17.38;60.17;101098.97;2094717;28;46797;-67
2023/04/29 01:20:43;;;;;;;;;3.00;3.00;;;;;17.38;60.05;101091.78;2097016;28;46064;-68
2023/04/29 01:21:47;;;;;;;;;4.67;4.67;;;;;17.38;60.31;101096.28;2094599;28;45488;-67
2023/04/29 01:22:47;;;;;;;;;5.25;5.25;;;;;17.37;60.48;101090.06;2091521;28;46491;-67
2023/04/29 01:23:55;;;;;;;;;4.33;4.33;;;;;17.38;60.62;101082.88;2089691;28;46778;-68
2023/04/29 01:24:55;;;;;;;;;5.00;5.00;;;;;17.37;60.36;101082.00;2096317;28;46391;-67
2023/04/29 01:25:57;;;;;;;;;6.00;5.00;;;;;17.37;60.37;101084.69;2096204;28;46277;-69
2023/04/29 01:27:07;;;;;;;;;6.25;4.00;;;;;17.34;60.38;101077.66;2096796;28;47450;-69
2023/04/29 01:28:39;;;;;;;;;4.00;1.75;;;;;17.34;60.18;101085.69;2088823;28;45706;-67
2023/04/29 01:29:48;;;;;;;;;5.75;5.00;;;;;17.34;60.31;101085.69;2088001;28;46412;-68
2023/04/29 01:30:56;;;;;;;;;3.00;3.00;;;;;17.33;60.44;101089.31;2093456;28;45966;-68
2023/04/29 01:32:12;;;;;;;;;6.75;6.50;;;;;17.33;60.61;101085.78;2096431;28;45177;-67
2023/04/29 01:33:48;;;;;;;;;4.00;4.00;;;;;17.32;60.59;101092.06;2096493;28;46002;-67
2023/04/29 01:35:08;;;;;;;;;6.00;5.75;;;;;17.30;60.47;101093.97;2093860;28;46468;-68
2023/04/29 01:36:24;;;;;;;;;5.75;5.25;;;;;17.28;60.40;101091.34;2097066;28;45972;-67
2023/04/29 01:37:48;;;;;;;;;6.75;6.25;;;;;17.27;60.57;101094.94;2096601;28;47185;-68
2023/04/29 01:39:07;;;;;;;;;5.50;5.50;;;;;17.26;60.69;101093.19;2092755;28;46248;-68
2023/04/29 01:40:19;;;;;;;;;7.75;5.75;;;;;17.26;60.42;101098.56;2090773;28;46011;-68
2023/04/29 01:41:42;;;;;;;;;5.00;5.00;;;;;17.28;60.39;101098.53;2096834;28;46911;-69
2023/04/29 01:43:01;;;;;;;;;7.25;7.25;;;;;17.25;60.47;101094.13;2096523;28;45836;-69
2023/04/29 01:44:03;;;;;;;;;6.00;4.75;;;;;17.25;60.58;101096.81;2093670;28;46604;-69
2023/04/29 01:45:07;;;;;;;;;4.00;4.00;;;;;17.24;60.37;101088.84;2090913;28;46057;-67
2023/04/29 01:46:15;;;;;;;;;6.75;6.00;;;;;17.23;60.50;101097.81;2092897;28;46670;-68
2023/04/29 01:47:16;;;;;;;;;5.50;5.50;;;;;17.20;60.92;101087.25;2088657;28;45032;-68
2023/04/29 01:48:18;;;;;;;;;6.00;6.00;;;;;17.19;60.86;101091.72;2088301;28;46568;-68
2023/04/29 01:49:24;;;;;;;;;8.75;7.00;;;;;17.19;60.86;101089.06;2088271;28;46572;-68
2023/04/29 01:50:24;;;;;;;;;9.00;7.75;;;;;17.20;60.91;101089.91;2088384;28;47008;-67
2023/04/29 01:51:24;;;;;;;;;5.00;5.00;;;;;17.19;60.98;101086.38;2088623;28;46067;-68
2023/04/29 01:52:25;;;;;;;;;6.67;5.67;;;;;17.19;60.67;101083.69;2086747;28;46800;-67
2023/04/29 01:53:26;;;;;;;;;5.33;5.33;;;;;17.20;60.88;101089.91;2080499;28;46013;-67
2023/04/29 01:54:26;;;;;;;;;5.00;5.00;;;;;17.19;60.70;101093.53;2090062;28;46836;-67
2023/04/29 01:55:26;;;;;;;;;7.00;7.00;;;;;17.19;60.82;101089.06;2097147;28;45774;-68
2023/04/29 01:56:27;;;;;;;;;6.00;6.00;;;;;17.19;60.85;101090.88;2096956;28;45147;-68
2023/04/29 01:57:27;;;;;;;;;8.33;6.33;;;;;17.19;60.70;101085.50;2096787;28;46275;-68
2023/04/29 01:58:28;;;;;;;;;5.67;5.67;;;;;17.19;60.79;101091.72;2096676;28;45849;-68
2023/04/29 01:59:29;;;;;;;;;6.67;6.67;;;;;17.17;60.87;101085.56;2091462;28;46461;-67
2023/04/29 02:00:29;;;;;;;;;6.75;6.50;;;;;17.17;60.79;101096.28;2088429;28;46786;-68
2023/04/29 02:01:30;;;;;;;;;6.00;6.00;;;;;17.17;60.92;101087.38;2088100;28;46475;-68
2023/04/29 02:02:30;;;;;;;;;6.00;6.00;;;;;17.18;61.14;101089.13;2088708;28;45196;-68
2023/04/29 02:03:31;;;;;;;;;6.00;6.00;;;;;17.17;61.00;101096.28;2088116;28;46101;-68
2023/04/29 02:04:33;;;;;;;;;6.67;6.67;;;;;17.19;60.73;101091.72;2095938;28;46663;-68
2023/04/29 02:05:34;;;;;;;;;6.25;6.25;;;;;17.19;60.95;101086.38;2088416;28;45906;-69
2023/04/29 02:06:35;;;;;;;;;6.25;6.25;;;;;17.16;60.82;101086.50;2088477;28;46239;-68
2023/04/29 02:07:35;;;;;;;;;7.00;7.00;;;;;17.17;60.60;101090.06;2088622;28;45630;-67
2023/04/29 02:08:36;;;;;;;;;8.00;6.67;;;;;17.16;60.80;101089.19;2089132;28;46811;-67
2023/04/29 02:09:36;;;;;;;;;6.00;6.00;;;;;17.14;60.82;101087.47;2097123;28;45335;-68
2023/04/29 02:10:36;;;;;;;;;7.00;5.33;;;;;17.13;61.02;101081.25;2088742;28;46410;-68
2023/04/29 02:11:37;;;;;;;;;6.33;6.33;;;;;17.11;60.81;101083.13;2088511;28;45378;-68
2023/04/29 02:12:37;;;;;;;;;9.33;7.67;;;;;17.11;61.25;101080.44;2087772;28;47652;-68
2023/04/29 02:13:38;;;;;;;;;6.00;6.00;;;;;17.09;61.16;101078.78;2087995;28;46416;-68
2023/04/29 02:14:38;;;;;;;;;6.00;6.00;;;;;17.10;60.75;101080.53;2085927;28;46323;-70
2023/04/29 02:15:38;;;;;;;;;5.00;5.00;;;;;17.10;61.03;101080.53;2095422;28;46080;-68
2023/04/29 02:16:39;;;;;;;;;5.67;5.67;;;;;17.09;60.74;101082.34;2096223;28;45092;-68
2023/04/29 02:17:39;;;;;;;;;5.00;5.00;;;;;17.09;60.86;101082.34;2095724;28;47230;-68
2023/04/29 02:18:40;;;;;;;;;7.33;7.33;;;;;17.08;60.92;101082.41;2096747;28;46013;-68
2023/04/29 02:19:40;;;;;;;;;7.67;6.67;;;;;17.07;60.94;101081.53;2096910;28;45632;-69
2023/04/29 02:20:41;;;;;;;;;6.33;5.00;;;;;17.07;61.00;101076.16;2096749;28;46569;-69
2023/04/29 02:21:41;;;;;;;;;5.33;5.00;;;;;17.06;61.01;101079.78;2093976;28;46287;-67
2023/04/29 02:22:42;;;;;;;;;5.00;5.00;;;;;17.05;60.97;101086.97;2086378;28;46454;-69
2023/04/29 02:23:43;;;;;;;;;7.33;7.00;;;;;17.06;60.91;101087.84;2087001;28;46096;-68
2023/04/29 02:24:43;;;;;;;;;4.67;4.67;;;;;17.06;61.17;101087.84;2082522;28;46265;-68
2023/04/29 02:25:43;;;;;;;;;6.00;6.00;;;;;17.06;61.26;101087.84;2095904;28;46501;-68
2023/04/29 02:26:44;;;;;;;;;5.00;5.00;;;;;17.07;60.76;101089.56;2096623;28;45469;-67
2023/04/29 02:27:44;;;;;;;;;5.33;5.33;;;;;17.06;60.98;101091.38;2096800;28;45433;-67
2023/04/29 02:28:45;;;;;;;;;6.00;5.67;;;;;17.06;60.99;101090.50;2096972;28;45481;-69
2023/04/29 02:29:45;;;;;;;;;8.67;5.67;;;;;17.05;61.19;101092.31;2091143;28;45716;-68
2023/04/29 02:30:45;;;;;;;;;5.33;5.00;;;;;17.06;61.38;101095.88;2088533;28;46891;-68
2023/04/29 02:31:46;;;;;;;;;7.00;5.33;;;;;17.05;61.08;101097.69;2096526;28;46278;-69
2023/04/29 02:32:46;;;;;;;;;7.00;6.67;;;;;17.04;60.95;101095.94;2092733;28;46523;-67
2023/04/29 02:33:47;;;;;;;;;6.33;6.33;;;;;17.03;60.83;101094.22;2087901;28;45774;-69
2023/04/29 02:34:47;;;;;;;;;6.33;6.33;;;;;17.04;61.37;101100.44;2088035;28;47040;-69
2023/04/29 02:35:48;;;;;;;;;6.75;5.75;;;;;17.05;61.43;101097.69;2088431;28;46648;-69
2023/04/29 02:36:49;;;;;;;;;4.67;4.67;;;;;17.05;61.38;101097.69;2088882;28;46582;-69
2023/04/29 02:37:49;;;;;;;;;8.67;7.00;;;;;17.08;61.16;101095.81;2088221;28;46718;-69
2023/04/29 02:38:49;;;;;;;;;7.33;6.00;;;;;17.06;60.81;101098.56;2087822;28;46394;-68
2023/04/29 02:39:50;;;;;;;;;7.33;6.33;;;;;17.08;61.17;101103.84;2095442;28;46430;-69
2023/04/29 02:40:51;;;;;;;;;7.67;7.33;;;;;17.08;61.16;101101.16;2093500;28;46046;-68
2023/04/29 02:41:53;;;;;;;;;8.00;7.67;;;;;17.07;61.02;101100.31;2088508;28;46159;-68
2023/04/29 02:42:54;;;;;;;;;8.50;8.50;;;;;17.05;61.09;101110.22;2093876;28;45662;-69
2023/04/29 02:43:54;;;;;;;;;8.00;6.67;;;;;17.02;61.08;101097.81;2096349;28;46579;-69
2023/04/29 02:44:55;;;;;;;;;6.00;4.67;;;;;17.01;60.75;101103.22;2096700;28;46393;-69
2023/04/29 02:45:56;;;;;;;;;5.33;5.33;;;;;16.99;60.97;101100.63;2085439;28;46404;-69
2023/04/29 02:46:56;;;;;;;;;7.00;6.00;;;;;16.97;61.13;101101.63;2079586;28;45624;-68
2023/04/29 02:47:57;;;;;;;;;6.67;6.67;;;;;16.95;60.72;101099.00;2092561;28;46068;-70
2023/04/29 02:48:58;;;;;;;;;6.33;6.33;;;;;16.94;61.09;101097.25;2095995;28;46439;-69
2023/04/29 02:49:58;;;;;;;;;7.00;5.33;;;;;16.93;61.10;101094.66;2096437;28;46735;-71
2023/04/29 02:50:59;;;;;;;;;8.33;8.00;;;;;16.92;61.30;101095.59;2096681;28;45760;-68
2023/04/29 02:51:59;;;;;;;;;5.00;5.00;;;;;16.92;61.00;101092.91;2096249;28;45786;-68
2023/04/29 02:53:00;;;;;;;;;6.67;6.67;;;;;16.90;61.53;101092.09;2080051;28;45191;-68
2023/04/29 02:54:00;;;;;;;;;8.00;7.00;;;;;16.89;61.00;101093.00;2071220;28;45819;-68
2023/04/29 02:55:01;;;;;;;;;6.33;6.33;;;;;16.87;60.80;101098.44;2079179;28;45702;-68
2023/04/29 02:56:01;;;;;;;;;8.33;6.33;;;;;16.85;61.04;101092.28;2091155;28;45892;-67
2023/04/29 02:57:02;;;;;;;;;7.00;7.00;;;;;16.84;61.14;101097.72;2096521;28;48450;-68
2023/04/29 02:58:02;;;;;;;;;7.67;6.67;;;;;16.84;61.53;101103.94;2096224;28;46751;-67
2023/04/29 02:59:03;;;;;;;;;7.67;7.33;;;;;16.83;61.48;101098.66;2094755;28;46064;-68
2023/04/29 03:00:03;;;;;;;;;8.00;8.00;;;;;16.83;61.49;101104.00;2088343;28;45882;-68
2023/04/29 03:01:04;;;;;;;;;7.25;7.25;;;;;16.82;61.57;101103.13;2088047;28;45216;-68
2023/04/29 03:02:04;;;;;;;;;7.00;7.00;;;;;16.81;61.35;101100.53;2087081;28;47910;-68
2023/04/29 03:03:04;;;;;;;;;6.67;6.33;;;;;16.80;61.35;101096.97;2093106;28;46163;-70
2023/04/29 03:04:05;;;;;;;;;7.25;7.25;;;;;16.79;61.40;101100.59;2096359;28;45978;-68
2023/04/29 03:05:06;;;;;;;;;6.75;6.75;;;;;16.79;61.34;101094.34;2088083;28;46214;-69
2023/04/29 03:06:06;;;;;;;;;6.67;6.67;;;;;16.78;61.30;101096.16;2091670;28;45025;-69
2023/04/29 03:07:06;;;;;;;;;8.33;8.33;;;;;16.78;61.68;101093.50;2097290;28;45587;-69
2023/04/29 03:08:09;;;;;;;;;8.00;8.00;;;;;16.76;61.69;101101.56;2096245;28;45600;-68
2023/04/29 03:09:09;;;;;;;;;8.50;8.50;;;;;16.76;61.46;101098.88;2096238;28;46826;-69
2023/04/29 03:10:11;;;;;;;;;10.00;10.00;;;;;16.76;61.35;101098.00;2096851;28;45598;-69
2023/04/29 03:11:11;;;;;;;;;10.50;10.50;;;;;16.74;61.34;101099.88;2096101;28;47217;-68
2023/04/29 03:12:11;;;;;;;;;9.00;9.00;;;;;16.73;61.65;101100.81;2096113;28;46629;-67
2023/04/29 03:13:12;;;;;;;;;10.00;9.33;;;;;16.70;61.54;101096.47;2096318;28;45772;-67
2023/04/29 03:14:13;;;;;;;;;8.00;8.00;;;;;16.68;61.54;101095.66;2093864;28;47880;-67
2023/04/29 03:15:14;;;;;;;;;9.00;7.00;;;;;16.67;61.75;101093.03;2087733;28;45475;-68
2023/04/29 03:16:15;;;;;;;;;8.00;8.00;;;;;16.65;61.73;101093.09;2089694;28;47824;-68
2023/04/29 03:17:16;;;;;;;;;6.75;6.75;;;;;16.64;61.63;101098.47;2096637;28;45805;-68
2023/04/29 03:18:16;;;;;;;;;7.00;6.00;;;;;16.63;61.79;101102.09;2103768;28;46544;-67
2023/04/29 03:19:17;;;;;;;;;7.00;6.00;;;;;16.62;61.54;101103.03;2090871;28;46025;-68
2023/04/29 03:20:18;;;;;;;;;7.33;7.33;;;;;16.60;61.78;101100.41;2087620;28;46186;-67
2023/04/29 03:21:18;;;;;;;;;8.50;7.75;;;;;16.61;61.65;101107.53;2095735;28;45726;-67
2023/04/29 03:22:19;;;;;;;;;7.67;6.67;;;;;16.58;61.92;101101.41;2087850;28;46835;-69
2023/04/29 03:23:19;;;;;;;;;6.00;6.00;;;;;16.57;61.75;101105.91;2087734;28;46952;-69
2023/04/29 03:24:20;;;;;;;;;8.00;8.00;;;;;16.55;61.66;101102.44;2088029;28;47003;-68
2023/04/29 03:25:20;;;;;;;;;6.33;6.33;;;;;16.53;61.69;101101.63;2088591;28;45604;-67
2023/04/29 03:26:23;;;;;;;;;6.00;6.00;;;;;16.52;61.89;101104.38;2096442;28;46255;-67
2023/04/29 03:27:23;;;;;;;;;6.00;6.00;;;;;16.50;61.65;101107.06;2095635;28;45291;-67
2023/04/29 03:28:24;;;;;;;;;9.00;7.33;;;;;16.49;62.21;101111.56;2095528;28;46466;-69
2023/04/29 03:29:26;;;;;;;;;6.00;6.00;;;;;16.49;61.80;101108.00;2096107;28;46379;-69
2023/04/29 03:30:26;;;;;;;;;7.75;7.75;;;;;16.48;62.14;101117.84;2096296;28;46985;-68
2023/04/29 03:31:27;;;;;;;;;5.33;5.33;;;;;16.48;62.05;101114.31;2096251;28;45215;-67
2023/04/29 03:32:27;;;;;;;;;7.00;7.00;;;;;16.46;61.91;101116.19;2096489;28;45842;-68
2023/04/29 03:33:28;;;;;;;;;6.67;6.67;;;;;16.45;61.91;101111.75;2096023;28;47849;-68
2023/04/29 03:34:28;;;;;;;;;7.67;7.67;;;;;16.43;61.88;101113.63;2095851;28;46712;-68
2023/04/29 03:35:29;;;;;;;;;8.00;7.33;;;;;16.42;61.93;101120.78;2096529;28;46343;-67
2023/04/29 03:36:29;;;;;;;;;8.00;6.00;;;;;16.41;62.03;101120.84;2097191;28;45874;-68
2023/04/29 03:37:29;;;;;;;;;8.00;8.00;;;;;16.41;61.74;101126.22;2097569;28;46102;-67
2023/04/29 03:38:30;;;;;;;;;6.00;6.00;;;;;16.40;62.17;101119.13;2097726;28;45831;-68
2023/04/29 03:39:31;;;;;;;;;7.00;7.00;;;;;16.39;62.07;101128.09;2097736;28;46424;-68
2023/04/29 03:40:31;;;;;;;;;7.50;7.50;;;;;16.39;62.21;101117.38;2097655;28;45783;-68
2023/04/29 03:41:32;;;;;;;;;10.00;9.00;;;;;16.40;62.29;101121.78;2096682;28;45990;-69
2023/04/29 03:42:32;;;;;;;;;9.67;9.33;;;;;16.40;61.76;101130.69;2089761;28;46019;-68
2023/04/29 03:43:33;;;;;;;;;7.33;7.33;;;;;16.39;62.28;101118.25;2101315;28;45634;-68
2023/04/29 03:44:33;;;;;;;;;9.00;8.67;;;;;16.41;61.89;101123.53;2097274;28;45636;-69
2023/04/29 03:45:34;;;;;;;;;11.33;10.33;;;;;16.39;62.11;101118.25;2096080;28;46266;-70
2023/04/29 03:46:34;;;;;;;;;10.33;10.33;;;;;16.39;61.64;101126.28;2090024;28;45949;-69
2023/04/29 03:47:34;;;;;;;;;13.00;10.00;;;;;16.39;61.86;101118.25;2089384;28;45757;-69
2023/04/29 03:48:35;;;;;;;;;12.33;11.67;;;;;16.38;61.93;101132.53;2087960;28;47434;-69
2023/04/29 03:49:36;;;;;;;;;11.67;11.33;;;;;16.37;61.74;101132.59;2092976;28;45135;-69
2023/04/29 03:50:36;;;;;;;;;12.67;12.00;;;;;16.36;61.84;101129.06;2097569;28;44978;-68
2023/04/29 03:51:37;;;;;;;;;13.33;12.33;;;;;16.36;61.90;101134.41;2088082;28;46753;-69
2023/04/29 03:52:38;;;;;;;;;14.00;14.00;;;;;16.35;61.95;101137.16;2088017;28;46592;-68
2023/04/29 03:53:38;;;;;;;;;12.67;12.67;;;;;16.33;62.22;101133.66;2088395;28;46739;-70
2023/04/29 03:54:39;;;;;;;;;10.00;10.00;;;;;16.30;62.00;101137.34;2088687;28;45840;-70
2023/04/29 03:55:39;;;;;;;;;11.33;11.00;;;;;16.27;61.83;101133.91;2088393;28;46259;-69
2023/04/29 03:56:40;;;;;;;;;11.67;11.67;;;;;16.24;62.20;101134.88;2087752;28;45512;-67
2023/04/29 03:57:40;;;;;;;;;13.33;12.33;;;;;16.23;62.17;101134.94;2082369;28;45789;-68
2023/04/29 03:58:41;;;;;;;;;12.00;12.00;;;;;16.18;62.21;101136.00;2080553;28;46789;-70
2023/04/29 03:59:41;;;;;;;;;11.33;11.33;;;;;16.17;62.12;101139.63;2088123;28;46015;-70
2023/04/29 04:00:42;;;;;;;;;10.00;10.00;;;;;16.15;62.08;101136.13;2088587;28;45995;-70
2023/04/29 04:01:42;;;;;;;;;12.33;12.00;;;;;16.14;62.40;101138.88;2072961;28;45958;-70
2023/04/29 04:02:43;;;;;;;;;10.33;10.33;;;;;16.13;61.97;101131.75;2071593;28;45497;-70
2023/04/29 04:03:43;;;;;;;;;9.33;9.33;;;;;16.11;62.44;101137.16;2080148;28;45073;-68
2023/04/29 04:04:44;;;;;;;;;11.00;11.00;;;;;16.09;62.36;101136.34;2079979;28;47246;-69
2023/04/29 04:05:44;;;;;;;;;13.00;11.00;;;;;16.08;62.62;101144.44;2080930;28;45567;-68
2023/04/29 04:06:50;;;;;;;;;11.67;10.67;;;;;16.07;62.62;101140.03;2079400;28;46400;-68
2023/04/29 04:07:51;;;;;;;;;14.00;14.00;;;;;16.05;62.52;101142.75;2072184;28;46035;-69
2023/04/29 04:08:51;;;;;;;;;10.00;10.00;;;;;16.06;62.59;101136.47;2075457;28;46725;-69
2023/04/29 04:09:52;;;;;;;;;12.33;10.33;;;;;16.07;62.38;101140.88;2079714;28;46623;-68
2023/04/29 04:10:52;;;;;;;;;13.33;13.00;;;;;16.07;62.70;101140.03;2079997;28;46248;-68
2023/04/29 04:11:52;;;;;;;;;11.67;11.67;;;;;16.06;62.39;101144.50;2073650;28;46345;-67
2023/04/29 04:12:53;;;;;;;;;8.00;8.00;;;;;16.05;62.71;101142.75;2079878;28;46655;-68
2023/04/29 04:13:53;;;;;;;;;12.00;11.67;;;;;16.05;62.58;101141.88;2088410;28;46411;-68
2023/04/29 04:14:54;;;;;;;;;13.33;12.00;;;;;16.05;62.81;101136.53;2084596;28;46426;-68
2023/04/29 04:15:54;;;;;;;;;10.25;10.25;;;;;16.06;62.32;101147.19;2079671;28;46426;-68
2023/04/29 04:16:54;;;;;;;;;10.00;9.00;;;;;16.05;62.60;101142.75;2079198;28;46351;-68
2023/04/29 04:17:55;;;;;;;;;12.67;11.67;;;;;16.06;62.76;101151.66;2071470;28;45024;-69
2023/04/29 04:18:55;;;;;;;;;13.00;13.00;;;;;16.02;62.41;101140.19;2071759;28;45501;-68
2023/04/29 04:19:55;;;;;;;;;12.33;12.00;;;;;16.01;62.71;101141.13;2079868;28;46059;-67
2023/04/29 04:20:56;;;;;;;;;12.00;12.00;;;;;16.00;62.89;101144.72;2071623;28;45804;-68
2023/04/29 04:21:56;;;;;;;;;12.00;11.67;;;;;16.00;62.84;101142.03;2071372;28;46772;-67
2023/04/29 04:22:56;;;;;;;;;14.00;11.33;;;;;15.99;62.82;101144.78;2073134;28;45498;-67
2023/04/29 04:23:57;;;;;;;;;14.00;13.00;;;;;15.96;62.91;101145.78;2092782;28;46085;-68
2023/04/29 04:24:57;;;;;;;;;13.00;12.67;;;;;15.93;63.05;101137.00;2093472;28;45888;-68
2023/04/29 04:25:57;;;;;;;;;15.00;13.00;;;;;15.93;62.84;101150.38;2092448;28;46021;-67
2023/04/29 04:26:58;;;;;;;;;14.00;13.00;;;;;15.91;63.27;101149.56;2090255;28;46062;-67
2023/04/29 04:27:58;;;;;;;;;17.75;17.25;;;;;15.89;63.23;101146.94;2096934;28;45797;-71
2023/04/29 04:28:58;;;;;;;;;15.33;13.67;;;;;15.91;63.33;101149.56;2088837;28;46520;-69
2023/04/29 04:30:01;;;;;;;;;12.33;12.33;;;;;15.90;62.86;101146.00;2088904;28;45706;-69
2023/04/29 04:31:01;;;;;;;;;11.00;9.25;;;;;15.92;62.94;101151.31;2087839;28;45630;-68
2023/04/29 04:32:02;;;;;;;;;14.33;11.67;;;;;15.90;62.63;101151.38;2089471;28;45849;-67
2023/04/29 04:33:02;;;;;;;;;13.00;13.00;;;;;15.90;62.80;101156.72;2089364;28;45875;-68
2023/04/29 04:34:03;;;;;;;;;11.67;11.33;;;;;15.90;63.02;101146.00;2088886;28;46841;-67
2023/04/29 04:35:04;;;;;;;;;12.33;12.33;;;;;15.89;62.91;101155.84;2088307;28;45449;-67
2023/04/29 04:36:04;;;;;;;;;12.00;12.00;;;;;15.89;62.96;101155.84;2094118;28;46564;-67
2023/04/29 04:37:05;;;;;;;;;14.00;12.00;;;;;15.87;63.21;101152.31;2079088;28;45267;-68
2023/04/29 04:38:06;;;;;;;;;17.00;17.00;;;;;15.88;63.25;101158.59;2071784;28;45799;-69
2023/04/29 04:39:07;;;;;;;;;17.50;13.25;;;;;15.87;63.09;101160.34;2088494;28;45856;-68
2023/04/29 04:40:08;;;;;;;;;17.33;17.00;;;;;15.88;63.23;101169.28;2089623;28;45545;-68
2023/04/29 04:41:08;;;;;;;;;11.50;11.00;;;;;15.88;63.40;101163.94;2088703;28;46638;-69
2023/04/29 04:42:08;;;;;;;;;11.67;11.33;;;;;15.88;63.16;101159.44;2093463;28;46277;-67
2023/04/29 04:43:09;;;;;;;;;14.00;12.67;;;;;15.89;63.16;101166.56;2097076;28;46572;-68
2023/04/29 04:44:09;;;;;;;;;16.33;15.00;;;;;15.89;62.97;101163.88;2095978;28;45752;-70
2023/04/29 04:45:10;;;;;;;;;13.67;13.00;;;;;15.89;63.16;101166.56;2090749;28;46790;-68
2023/04/29 04:46:15;;;;;;;;;13.25;13.25;;;;;15.88;63.39;101158.59;2092830;28;46649;-69
2023/04/29 04:47:16;;;;;;;;;13.80;13.80;;;;;15.88;63.48;101166.63;2088707;28;46184;-68